Historyczne dane pomiarowe

Dodano dane terminowe – wersja testowa.

Dane z okresu 1951-2019

Wersja bazy: 1.34 [2019-03-16, lista zmian], aktualizacja planowana na 2019-04-15

Dane meteo z obszaru Polski uzyskane na podstawie danych udostępnionych przez Instytut Meteorologii i Gospodarki Wodnej – Państwowy Instytut Badawczy.

 

Wybierz Datę:    

       

TemperaturaWilgotnośćWiatrCiśnienieOpadyŚniegCzas trwania zjawisk
 Stacja t tx tn tng RH VA  wxwx mslp ppp RRR   cm mm wxwxwxwxwxwxwx
1987-08-14 12.6 16.2 8.5 5.6 89.8- 8.0 4.3---- 5.3------------
1987-08-13 13.2 19.0 7.5 4.8 77.5- 7.3 4.7---- 0.0------------
1987-08-12 12.9 17.7 6.3 2.9 70.8- 4.3 2.7---- 0.0------------
1987-08-11 13.2 17.8 9.1 5.5 69.5- 6.0 1.3---- 0.0------------
1987-08-10 15.5 19.2 10.5 9.5 84.5- 8.0 2.3---- 0.3------------
1987-08-09 16.5 23.6 11.3 9.0 71.3- 6.7 4.7---- 6.2------------
1987-08-08 14.2 20.4 6.3 2.9 67.0- 3.3 1.3---- 0.0------------
1987-08-07 10.0 14.8 5.9 3.9 87.3- 7.3 2.0---- 5.6------------
1987-08-06 11.2 15.2 8.0 5.0 76.0- 8.0 2.3---- 0.0------------
1987-08-05 12.1 16.2 7.5 6.9 79.5- 8.0 2.3---- 4.2------------
1987-08-04 15.8 17.4 14.3 13.0 77.8- 8.0 5.3---- 0.0------------
1987-08-03 15.1 20.0 9.8 6.9 76.3- 7.3 1.3---- 1.8------------
1987-08-02 14.2 18.8 11.3 10.6 77.3- 8.0 0.7---- 3.0------------
1987-08-01 15.2 19.6 11.8 9.0 80.3- 8.0 3.7---- 3.6------------
1987-07-31 15.5 20.2 13.5 12.9 84.0- 7.3 2.7---- 3.3------------
1987-07-30 17.0 23.8 9.4 7.1 71.8- 5.7 2.3---- 14.2------------
1987-07-29 14.3 18.6 9.8 6.4 76.8- 7.3 1.7---- 0.0------------
1987-07-28 12.9 15.6 11.8 11.0 81.0- 8.0 3.7---- 0.8------------
1987-07-27 12.4 16.7 8.0 4.7 67.3- 7.7 4.3---- 0.7------------
1987-07-26 11.9 16.2 10.7 9.0 89.8- 8.0 3.7---- 1.2------------
1987-07-25 18.5 24.0 15.1 14.0 79.3- 6.7 3.3---- 0.4------------
1987-07-24 18.6 24.4 16.1 14.7 87.0- 6.7 3.3---- 10.7------------
1987-07-23 19.0 26.7 12.8 10.2 78.5- 1.3 0.3---- 0.0------------
1987-07-22 18.7 23.6 13.0 12.4 75.5- 4.7 0.3---- 0.0------------
1987-07-21 18.1 24.2 13.1 10.6 82.5- 4.0 1.7---- 0.0------------
1987-07-20 18.3 21.6 15.6 15.0 83.3- 6.0 2.7---- 0.0------------
1987-07-19 18.9 22.7 17.5 15.1 85.5- 7.3 1.7---- 14.6------------
1987-07-18 22.2 26.5 17.9 14.4 81.0- 6.0 3.3---- 0.0------------
1987-07-17 22.7 28.6 17.9 16.6 75.5- 6.7 0.7---- 0.0------------
1987-07-16 20.1 27.1 13.0 10.2 79.3- 6.0 2.0---- 7.1------------
1987-07-15 17.7 24.2 9.8 5.4 74.3- 1.0 1.0---- 0.0------------
1987-07-14 16.5 21.4 11.5 10.0 67.8- 2.0 1.0---- 0.0------------
1987-07-13 17.9 22.0 12.6 11.4 72.3- 6.0 2.3---- 0.0------------
1987-07-12 20.4 26.1 15.1 16.4 72.3- 6.7 6.0---- 3.7------------
1987-07-11 17.0 23.5 9.1 5.7 71.5- 4.3 2.7---- 0.0------------
1987-07-10 14.1 18.8 9.8 6.6 71.3- 4.3 1.7---- 0.0------------
1987-07-09 16.0 21.7 14.0 14.2 93.5- 8.0 3.3---- 2.8------------
1987-07-08 20.5 26.1 14.2 11.3 64.8- 6.0 4.3---- 4.4------------
1987-07-07 18.5 25.1 9.8 5.9 67.5- 2.0 3.0---- 0.0------------
1987-07-06 18.0 22.7 11.4 9.8 64.3- 2.0 1.0---- 0.0------------
1987-07-05 15.2 19.5 12.2 10.6 73.0- 6.3 4.0---- 0.0------------
1987-07-04 17.8 22.0 13.3 12.2 75.3- 6.3 4.7---- 0.0------------
1987-07-03 18.1 21.8 14.4 13.4 74.5- 8.0 2.0---- 0.0------------
1987-07-02 16.9 20.6 14.8 16.4 91.0- 7.3 3.3---- 2.3------------
1987-07-01 22.4 28.6 17.9 15.9 78.0- 3.7 3.7---- 3.0------------
1987-06-30 22.4 28.0 16.6 14.2 78.0- 0.3 3.7---- 0.0------------
1987-06-29 21.2 25.7 17.5 16.5 77.0- 4.3 0.7---- 0.0------------
1987-06-28 18.6 24.0 12.0 9.2 76.5- 5.3 0.7---- 0.0------------
1987-06-27 16.0 19.5 14.6 13.2 89.0- 7.3 2.0---- 2.6------------
1987-06-26 15.8 22.2 9.2 7.4 78.0- 8.0 3.7---- 8.5------------
1987-06-25 14.3 16.8 12.9 10.2 79.3- 8.0 4.0---- 0.0------------
1987-06-24 16.0 19.9 11.2 9.0 75.0- 5.7 1.3---- 1.1------------
1987-06-23 14.7 19.4 10.1 7.6 85.5- 8.0 2.3---- 3.2------------
1987-06-22 12.9 16.4 12.2 12.0 90.0- 8.0 5.0---- 0.0------------
1987-06-21 16.3 21.2 9.4 6.9 77.3- 6.0 2.7---- 0.1------------
1987-06-20 13.5 20.0 9.3 7.8 78.5- 6.7 1.7---- 0.0------------
1987-06-19 12.2 17.0 6.8 3.9 70.8- 7.3 3.3---- 0.0------------
1987-06-18 10.7 14.4 7.3 5.4 74.0- 8.0 6.0---- 0.7------------
1987-06-17 11.3 15.4 6.9 5.6 76.5- 8.0 3.0---- 0.0------------
1987-06-16 12.7 23.6 9.8 8.6 82.3- 8.0 2.7---- 3.5------------
3180.0 ms

 

Źródłem pochodzenia danych jest Instytut Meteorologii i Gospodarki Wodnej – Państwowy Instytut Badawczy. Dane Instytutu Meteorologii i Gospodarki Wodnej – Państwowego Instytutu Badawczego zostały przetworzone.

Dane źródłowe można odnaleźć na stronie https://dane.imgw.pl